CheckWX is a tool to help pilots better visualize weather data.  It is not intended as a substitute for an official pre-flight weather briefing.

13:48:14 UTC

KMXF TAF
Maxwell AFB Airport
Montgomery, Alabama, USA
TAF AMD KMXF 251250Z 2512/2617 VRB06KT 9999 BKN010 QNH2997INS BECMG 2517/2518 10006KT 9999 VCSH BKN025 QNH2991INS BECMG 2519/2520 10006KT 8000 -SHRA BKN025 QNH2992INS TEMPO 2521/2524 10010G20KT 4800 -TSRA BKN020CB BECMG 2605/2606 12006KT 9999 VCSH BKN015 QNH2993INS TEMPO 2608/2614 BKN008 BECMG 2614/2615 15006KT 9000 -SHRA BKN015 QNH2995INS TX28/2520Z TN23/2608Z

Aug-25@
12:00 UTC

Aug-25 @ 12:00 UTC

Aug-25@
17:00 UTC

Aug-25 @ 17:00 UTC

TAF AMD KMXF 251250Z 2512/2617 VRB06KT 9999 BKN010 QNH2997INS
Wind
  • Variable at 6 KTS
Cloud Levels
  • Broken at 1,000' AGL

Aug-25@
17:00 UTC

Aug-25 @ 17:00 UTC

Aug-25@
19:00 UTC

Aug-25 @ 19:00 UTC

BECMG 2517/2518 10006KT 9999 VCSH BKN025 QNH2991INS

Becoming

Becoming Conditions expected by Sun, Aug 25, 2019 @ 18:00 UTC

Wind
  • 100° at 6 KTS
Cloud Levels
  • Broken at 2,500' AGL

Aug-25@
19:00 UTC

Aug-25 @ 19:00 UTC

Aug-26@
05:00 UTC

Aug-26 @ 05:00 UTC

BECMG 2519/2520 10006KT 8000 -SHRA BKN025 QNH2992INS

Becoming

Becoming Conditions expected by Sun, Aug 25, 2019 @ 20:00 UTC

Wind
  • 100° at 6 KTS
Conditions
Light Rain
Cloud Levels
  • Broken at 2,500' AGL

Aug-25@
21:00 UTC

Aug-25 @ 21:00 UTC

Aug-26@
00:00 UTC

Aug-26 @ 00:00 UTC

TEMPO 2521/2524 10010G20KT 4800 -TSRA BKN020CB

Temporary

Temporary Changes expected for less than half the time period

Wind
  • 100° at 10 KTS
  • {Gusting to 20 KTS
Conditions
Light Thunderstorm, Light Rain
Cloud Levels
  • Broken at 2,000' AGL

Aug-26@
05:00 UTC

Aug-26 @ 05:00 UTC

Aug-26@
14:00 UTC

Aug-26 @ 14:00 UTC

BECMG 2605/2606 12006KT 9999 VCSH BKN015 QNH2993INS

Becoming

Becoming Conditions expected by Mon, Aug 26, 2019 @ 06:00 UTC

Wind
  • 120° at 6 KTS
Cloud Levels
  • Broken at 1,500' AGL

Aug-26@
08:00 UTC

Aug-26 @ 08:00 UTC

Aug-26@
14:00 UTC

Aug-26 @ 14:00 UTC

TEMPO 2608/2614 BKN008

Temporary

Temporary Changes expected for less than half the time period

Cloud Levels
  • Broken at 800' AGL

Aug-26@
14:00 UTC

Aug-26 @ 14:00 UTC

Aug-26@
17:00 UTC

Aug-26 @ 17:00 UTC

BECMG 2614/2615 15006KT 9000 -SHRA BKN015 QNH2995INS TX28/2520Z TN23/2608Z

Becoming

Becoming Conditions expected by Mon, Aug 26, 2019 @ 15:00 UTC

Wind
  • 150° at 6 KTS
Conditions
Light Rain
Cloud Levels
  • Broken at 1,500' AGL